Terminal Aerodrome Forecast
Issued by NWS

Home | Current Version | Previous Version | Text Only | Print | Product List | Glossary On
Versions: 1 2 3 4 5 6 7 8 9 10 11 12 13
000
FTAK31 PAJN 301100
TAFAGY
TAF
PAGY 301138Z 3012/3112 VRB03KT P6SM VCSH FEW035 OVC070
     FM301400 03006KT 6SM -RA OVC040
     FM310300 18009KT 6SM BR VCSH BKN015 OVC025
      AMD LTD TO CLD VIS AND WIND=

USA.gov is the U.S. government's official web portal to all federal, state and local government web resources and services.